Loudon, TN (37774)

11:17 AM EDT on March 30, 2015 (GMT -0400)
West Hills(WBLC) | | Change Station
CLOSE
Current Station
Personal Weather Station
Location: Lenoir City, TN
Elevation: 960 ft
Nearby Weather Stations

Elev 960 ft 35.79 °N, 84.29 °W | Updated 8 seconds ago

Partly Cloudy
Partly Cloudy
59.9 °F
Feels Like 59.9 °F
N
8.3
Wind Variable Wind from East
Gusts 8.3 mph

Today
High -- | Low -- °F
--% Chance of Precip.
Yesterday
High -- | Low -- °F
Precip. -- in
7:26 AM 7:57 PM
Waxing Gibbous, 80% visible
Pressure 30.16 in
Visibility 10.0 miles
Clouds Few 1300 ft
Scattered Clouds 5000 ft
Scattered Clouds 15000 ft
Dew Point 51 °F
Humidity 72%
Rainfall 0.11 in
Snow Depth Not available.
UV 0.0 out of 12
Pollen 8.40 out of 12
Air Quality Not available.
Flu Activity Not available.
METAR KTYS 301453Z 25008KT 10SM FEW013 SCT050 SCT150 12/08 A3016 RMK AO2 SLP211 T01170083 53016

More Conditions Fewer Conditions

Pressure 30.16 in
Visibility 10.0 miles
Clouds Few 1300 ft
Scattered Clouds 5000 ft
Scattered Clouds 15000 ft
Dew Point 51 °F
Humidity 72%
Rainfall 0.11 in
Snow Depth Not available.
UV 0.0 out of 12
Pollen 8.40 out of 12
Air Quality Not available.
Flu Activity Not available.
METAR KTYS 301453Z 25008KT 10SM FEW013 SCT050 SCT150 12/08 A3016 RMK AO2 SLP211 T01170083 53016

More Conditions Fewer Conditions

10-Day Weather Forecast

Almanac

Astronomy

Mar. 30, 2015 Rise Set
Actual Time
Civil Twilight
Nautical Twilight
Astronomical Twilight
Moon
Length of Visible Light
Length of Day
Tomorrow will be .
, % of the Moon is Illuminated

Today's Extremes

State Highs State Lows

Community

WunderPhotos

Upload Photos

1,809,519 photos uploaded!

WunderBlogs® & News

Nearby

Air Quality

  Air Quality AQ Index Pollutant
Not available.

Snow Depth

Station Depth Elevation

Earthquake Activity

City Distance Mag. Time & Date
Minimum magnitude displayed is 2.5.

Coastal Water Temperatures

Place Temperature

Stations

Nearby Weather Stations

Station Location Temp. Windchill Dew Point Humidity Wind Precip. Elev Updated Type